createdAt,value
2023-04-29T00:00:16.386Z,25.45
2023-04-29T00:02:50.318Z,27.55
2023-04-29T00:05:18.189Z,28.15
2023-04-29T00:07:51.011Z,26.90
2023-04-29T00:10:17.811Z,33.15
2023-04-29T00:12:46.904Z,30.20
2023-04-29T00:15:13.542Z,30.63
2023-04-29T00:17:42.541Z,30.17
2023-04-29T00:20:10.321Z,31.35
2023-04-29T00:22:39.694Z,34.97
2023-04-29T00:25:11.299Z,34.08
2023-04-29T00:27:40.746Z,35.25
2023-04-29T00:30:08.463Z,36.33
2023-04-29T00:32:37.674Z,41.85
2023-04-29T00:35:04.575Z,35.88
2023-04-29T00:37:31.242Z,45.08
2023-04-29T00:40:02.584Z,40.63
2023-04-29T00:42:30.665Z,44.67
2023-04-29T00:45:00.287Z,46.67
2023-04-29T00:47:29.248Z,43.55
2023-04-29T00:49:55.948Z,41.65
2023-04-29T00:52:23.264Z,47.38
2023-04-29T00:54:55.496Z,44.78
2023-04-29T00:57:22.695Z,45.45
2023-04-29T00:59:50.048Z,45.08
2023-04-29T01:02:19.730Z,46.15
2023-04-29T01:04:46.982Z,50.75
2023-04-29T01:07:24.222Z,46.28
2023-04-29T01:10:06.846Z,52.70
2023-04-29T01:15:25.314Z,52.33
2023-04-29T01:17:58.528Z,52.38
2023-04-29T01:20:26.474Z,55.83
2023-04-29T01:22:55.784Z,56.10
2023-04-29T01:25:24.734Z,52.00
2023-04-29T01:28:56.620Z,49.25
2023-04-29T01:31:58.680Z,58.50
2023-04-29T01:35:07.695Z,56.00
2023-04-29T01:37:47.316Z,44.85
2023-04-29T01:40:28.137Z,49.47
2023-04-29T01:43:05.592Z,48.25
2023-04-29T01:45:35.166Z,51.72
2023-04-29T01:48:04.599Z,49.40
2023-04-29T01:50:32.544Z,52.67
2023-04-29T01:53:07.927Z,57.08
2023-04-29T01:55:39.490Z,53.38
2023-04-29T01:58:18.854Z,55.95
2023-04-29T02:01:17.309Z,53.72
2023-04-29T02:03:46.603Z,58.13
2023-04-29T02:06:15.251Z,53.08
2023-04-29T02:08:42.101Z,50.35
2023-04-29T02:11:20.791Z,55.65
2023-04-29T02:13:47.526Z,51.90
2023-04-29T02:16:18.420Z,50.45
2023-04-29T02:18:58.759Z,50.25
2023-04-29T02:21:35.245Z,51.80
2023-04-29T02:24:06.715Z,47.05
2023-04-29T02:26:34.367Z,48.38
2023-04-29T02:29:06.242Z,45.78
2023-04-29T02:31:33.151Z,46.40
2023-04-29T02:34:00.417Z,44.17
2023-04-29T02:36:35.543Z,44.13
2023-04-29T02:39:04.477Z,40.95
2023-04-29T02:41:33.791Z,43.03
2023-04-29T02:44:05.008Z,42.70
2023-04-29T02:46:36.338Z,49.60
2023-04-29T02:49:05.757Z,40.33
2023-04-29T02:51:32.349Z,35.88
2023-04-29T02:53:59.075Z,29.58
2023-04-29T02:56:32.157Z,31.30
2023-04-29T02:59:04.021Z,28.75
2023-04-29T03:01:33.761Z,29.25
2023-04-29T03:04:00.554Z,26.05
2023-04-29T03:06:27.701Z,30.65
2023-04-29T03:08:59.118Z,31.10
2023-04-29T03:11:28.863Z,30.23
2023-04-29T03:13:57.813Z,31.20
2023-04-29T03:16:25.261Z,29.88
2023-04-29T03:18:54.384Z,28.80
2023-04-29T03:21:20.923Z,28.17
2023-04-29T03:23:51.726Z,32.22
2023-04-29T03:26:27.231Z,30.50
2023-04-29T03:28:56.423Z,29.55
2023-04-29T03:31:28.400Z,30.13
2023-04-29T03:33:57.971Z,31.25
2023-04-29T03:36:24.725Z,31.65
2023-04-29T03:39:10.250Z,26.83
2023-04-29T03:41:36.836Z,31.27
2023-04-29T03:44:03.974Z,32.97
2023-04-29T03:46:30.713Z,31.88
2023-04-29T03:49:04.028Z,33.17
2023-04-29T03:51:37.075Z,33.58
2023-04-29T03:54:16.310Z,35.78
2023-04-29T03:56:46.981Z,33.42
2023-04-29T03:59:16.244Z,29.95
2023-04-29T04:01:43.034Z,31.30
2023-04-29T04:04:11.955Z,33.97
2023-04-29T04:06:47.068Z,31.02
2023-04-29T04:09:13.685Z,32.78
2023-04-29T04:11:45.615Z,37.65
2023-04-29T04:16:39.499Z,30.27
2023-04-29T04:19:06.317Z,34.50
2023-04-29T04:21:36.784Z,33.25
2023-04-29T04:24:09.347Z,32.13
2023-04-29T04:26:36.069Z,29.45
2023-04-29T04:29:08.172Z,31.27
2023-04-29T04:31:50.074Z,31.77
2023-04-29T04:34:24.558Z,27.60
2023-04-29T04:36:52.541Z,27.73
2023-04-29T04:39:22.100Z,28.15
2023-04-29T04:41:51.225Z,27.35
2023-04-29T04:44:24.306Z,33.22
2023-04-29T04:46:58.323Z,24.63
2023-04-29T04:49:49.628Z,26.02
2023-04-29T04:52:20.621Z,28.45
2023-04-29T04:54:50.170Z,25.20
2023-04-29T04:57:30.861Z,26.42
2023-04-29T05:00:05.557Z,25.20
2023-04-29T05:02:35.148Z,27.60
2023-04-29T05:05:03.967Z,24.48
2023-04-29T05:07:37.202Z,24.75
2023-04-29T05:10:06.581Z,25.60
2023-04-29T05:12:36.434Z,22.50
2023-04-29T05:15:04.378Z,26.83
2023-04-29T05:17:32.171Z,24.10
2023-04-29T05:19:59.184Z,21.67
2023-04-29T05:22:26.010Z,23.42
2023-04-29T05:24:54.067Z,20.48
2023-04-29T05:27:21.550Z,24.10
2023-04-29T05:29:48.254Z,23.83
2023-04-29T05:32:15.273Z,23.63
2023-04-29T05:34:45.377Z,25.02
2023-04-29T05:37:12.016Z,22.25
2023-04-29T05:39:56.074Z,21.45
2023-04-29T05:42:24.831Z,21.80
2023-04-29T05:44:51.790Z,20.92
2023-04-29T05:47:20.629Z,20.05
2023-04-29T05:49:48.015Z,20.55
2023-04-29T05:52:14.690Z,21.13
2023-04-29T05:54:48.058Z,22.98
2023-04-29T05:57:17.127Z,20.98
2023-04-29T05:59:44.378Z,17.88
2023-04-29T06:02:12.227Z,19.30
2023-04-29T06:04:43.472Z,18.70
2023-04-29T06:07:21.230Z,18.65
2023-04-29T06:09:51.239Z,16.88
2023-04-29T06:12:18.001Z,18.60
2023-04-29T06:14:46.622Z,17.00
2023-04-29T06:17:13.619Z,16.20
2023-04-29T06:19:40.725Z,17.67
2023-04-29T06:22:09.467Z,17.77
2023-04-29T06:24:38.214Z,18.10
2023-04-29T06:27:06.391Z,16.17
2023-04-29T06:29:33.073Z,19.27
2023-04-29T06:31:59.683Z,17.42
2023-04-29T06:34:26.661Z,16.88
2023-04-29T06:37:21.908Z,18.88
2023-04-29T06:40:08.015Z,17.50
2023-04-29T06:42:44.147Z,21.58
2023-04-29T06:45:33.978Z,17.55
2023-04-29T06:48:09.380Z,21.33
2023-04-29T06:50:58.394Z,22.42
2023-04-29T06:53:25.024Z,20.23
2023-04-29T06:55:51.771Z,19.15
2023-04-29T06:58:20.690Z,19.05
2023-04-29T07:00:48.728Z,16.38
2023-04-29T07:03:16.646Z,18.42
2023-04-29T07:05:45.389Z,19.00
2023-04-29T07:08:13.361Z,20.58
2023-04-29T07:10:41.244Z,18.80
2023-04-29T07:13:08.090Z,22.45
2023-04-29T07:15:35.724Z,24.20
2023-04-29T07:18:05.221Z,21.65
2023-04-29T07:20:32.230Z,20.73
2023-04-29T07:22:59.278Z,23.02
2023-04-29T07:25:27.672Z,25.45
2023-04-29T07:27:56.415Z,25.25
2023-04-29T07:30:25.110Z,22.40
2023-04-29T07:32:51.932Z,24.17
2023-04-29T07:35:22.298Z,21.80
2023-04-29T07:37:49.072Z,24.88
2023-04-29T07:40:15.826Z,19.40
2023-04-29T07:42:43.448Z,18.15
2023-04-29T07:45:12.739Z,21.98
2023-04-29T07:47:42.671Z,20.45
2023-04-29T07:50:09.730Z,20.42
2023-04-29T07:52:38.948Z,21.85
2023-04-29T07:55:05.992Z,22.10
2023-04-29T07:57:32.803Z,21.27
2023-04-29T07:59:59.634Z,23.88
2023-04-29T08:02:26.394Z,20.52
2023-04-29T08:04:56.106Z,22.55
2023-04-29T08:07:23.277Z,20.95
2023-04-29T08:09:51.271Z,20.30
2023-04-29T08:12:17.892Z,21.17
2023-04-29T08:14:44.465Z,21.83
2023-04-29T08:17:11.334Z,20.92
2023-04-29T08:19:38.013Z,24.75
2023-04-29T08:22:05.048Z,18.02
2023-04-29T08:24:33.531Z,19.88
2023-04-29T08:27:00.227Z,18.52
2023-04-29T08:29:26.888Z,18.60
2023-04-29T08:31:53.671Z,19.05
2023-04-29T08:34:20.338Z,18.23
2023-04-29T08:36:46.911Z,17.02
2023-04-29T08:39:15.638Z,18.05
2023-04-29T08:41:45.389Z,18.23
2023-04-29T08:44:11.933Z,18.17
2023-04-29T08:46:39.262Z,15.02
2023-04-29T08:49:06.822Z,16.77
2023-04-29T08:51:34.569Z,15.35
2023-04-29T08:54:01.221Z,14.02
2023-04-29T08:56:30.838Z,13.50
2023-04-29T08:58:58.945Z,14.77
2023-04-29T09:01:28.656Z,13.32
2023-04-29T09:04:21.360Z,14.60
2023-04-29T09:06:48.819Z,12.18
2023-04-29T09:09:15.939Z,10.75
2023-04-29T09:11:42.540Z,13.40
2023-04-29T09:14:09.397Z,13.70
2023-04-29T09:16:38.148Z,15.35
2023-04-29T09:19:07.184Z,13.63
2023-04-29T09:21:35.988Z,13.77
2023-04-29T09:24:03.751Z,16.42
2023-04-29T09:26:45.360Z,13.63
2023-04-29T09:29:18.200Z,18.60
2023-04-29T09:31:45.990Z,15.63
2023-04-29T09:34:14.112Z,17.30
2023-04-29T09:36:47.825Z,19.63
2023-04-29T09:39:19.220Z,20.60
2023-04-29T09:41:54.787Z,19.55
2023-04-29T09:44:23.247Z,22.02
2023-04-29T09:46:57.713Z,21.15
2023-04-29T09:49:29.333Z,18.30
2023-04-29T09:51:57.086Z,21.58
2023-04-29T09:54:28.384Z,23.58
2023-04-29T09:56:56.087Z,21.08
2023-04-29T09:59:23.607Z,19.75
2023-04-29T10:01:54.341Z,21.85
2023-04-29T10:04:23.341Z,21.42
2023-04-29T10:06:54.839Z,18.92
2023-04-29T10:09:23.329Z,23.60
2023-04-29T10:11:52.563Z,18.13
2023-04-29T10:14:21.643Z,21.15
2023-04-29T10:17:09.877Z,20.60
2023-04-29T10:19:47.338Z,19.85
2023-04-29T10:22:26.757Z,19.75
2023-04-29T10:24:55.448Z,21.95
2023-04-29T10:27:24.846Z,18.55
2023-04-29T10:29:54.456Z,22.30
2023-04-29T10:32:22.288Z,21.50
2023-04-29T10:34:54.601Z,19.90
2023-04-29T10:39:56.686Z,20.75
2023-04-29T10:42:59.406Z,21.35
2023-04-29T10:45:31.629Z,21.17
2023-04-29T10:48:10.390Z,18.45
2023-04-29T10:50:48.850Z,24.05
2023-04-29T10:53:17.016Z,18.55
2023-04-29T10:55:47.490Z,20.38
2023-04-29T10:58:37.125Z,20.08
2023-04-29T11:01:04.779Z,18.15
2023-04-29T11:03:48.759Z,18.73
2023-04-29T11:06:16.497Z,20.27
2023-04-29T11:08:43.356Z,20.95
2023-04-29T11:11:10.028Z,16.73
2023-04-29T11:13:40.532Z,19.63
2023-04-29T11:16:11.434Z,20.58
2023-04-29T11:19:10.357Z,17.38
2023-04-29T11:21:37.570Z,17.48
2023-04-29T11:24:06.370Z,18.05
2023-04-29T11:26:35.668Z,17.52
2023-04-29T11:29:02.462Z,15.30
2023-04-29T11:31:32.972Z,15.02
2023-04-29T11:34:00.483Z,14.52
2023-04-29T11:36:27.466Z,15.68
2023-04-29T11:38:54.153Z,17.63
2023-04-29T11:41:22.296Z,13.75
2023-04-29T11:43:56.945Z,12.60
2023-04-29T11:46:23.642Z,13.90
2023-04-29T11:48:50.641Z,13.93
2023-04-29T11:51:19.016Z,15.77
2023-04-29T11:53:45.769Z,15.07
2023-04-29T11:56:12.689Z,14.98
2023-04-29T11:58:43.306Z,14.75
2023-04-29T12:01:09.934Z,14.85
2023-04-29T12:03:36.858Z,13.73
2023-04-29T12:06:08.309Z,13.45
2023-04-29T12:08:35.060Z,14.23
2023-04-29T12:11:01.738Z,15.10
2023-04-29T12:13:30.416Z,15.00
2023-04-29T12:15:58.698Z,12.40
2023-04-29T12:18:27.995Z,13.90
2023-04-29T12:20:55.938Z,17.85
2023-04-29T12:23:27.236Z,13.13
2023-04-29T12:25:55.261Z,14.68
2023-04-29T12:28:22.521Z,13.57
2023-04-29T12:30:57.827Z,12.82
2023-04-29T12:33:29.263Z,12.35
2023-04-29T12:35:57.983Z,11.17
2023-04-29T12:38:30.033Z,12.68
2023-04-29T12:40:58.825Z,10.77
2023-04-29T12:43:33.530Z,9.90
2023-04-29T12:46:07.953Z,9.80
2023-04-29T12:48:39.218Z,9.15
2023-04-29T12:51:08.178Z,9.33
2023-04-29T12:53:34.805Z,10.43
2023-04-29T12:56:01.805Z,9.70
2023-04-29T12:58:32.836Z,9.77
2023-04-29T13:00:59.681Z,12.75
2023-04-29T13:03:26.798Z,9.20
2023-04-29T13:05:54.626Z,10.77
2023-04-29T13:08:21.336Z,8.90
2023-04-29T13:10:48.021Z,8.30
2023-04-29T13:13:14.618Z,7.65
2023-04-29T13:15:41.230Z,7.55
2023-04-29T13:18:08.058Z,8.82
2023-04-29T13:20:41.048Z,8.50
2023-04-29T13:23:09.493Z,9.25
2023-04-29T13:25:36.377Z,8.35
2023-04-29T13:28:05.065Z,8.65
2023-04-29T13:30:31.785Z,9.10
2023-04-29T13:33:04.387Z,9.73
2023-04-29T13:35:39.882Z,8.63
2023-04-29T13:38:06.745Z,8.55
2023-04-29T13:40:38.290Z,10.50
2023-04-29T13:43:09.597Z,9.93
2023-04-29T13:45:39.889Z,9.60
2023-04-29T13:48:26.149Z,8.27
2023-04-29T13:54:02.878Z,9.98
2023-04-29T13:59:31.637Z,10.30
2023-04-29T14:03:58.714Z,9.40
2023-04-29T14:06:25.523Z,11.07
2023-04-29T14:08:52.088Z,9.73
2023-04-29T14:11:19.460Z,9.45
2023-04-29T14:13:46.036Z,9.40
2023-04-29T14:16:12.860Z,10.05
2023-04-29T14:18:39.489Z,8.68
2023-04-29T14:21:06.144Z,8.73
2023-04-29T14:23:32.727Z,8.73
2023-04-29T14:26:16.602Z,7.40
2023-04-29T14:28:45.872Z,10.35
2023-04-29T14:31:13.746Z,8.85
2023-04-29T14:33:40.891Z,8.77
2023-04-29T14:36:07.943Z,10.52
2023-04-29T14:38:34.519Z,8.27
2023-04-29T14:41:01.118Z,8.95
2023-04-29T14:43:28.751Z,7.70
2023-04-29T14:45:55.846Z,9.02
2023-04-29T14:48:22.503Z,8.25
2023-04-29T14:50:49.248Z,10.05
2023-04-29T14:53:16.994Z,9.27
2023-04-29T14:55:43.716Z,9.15
2023-04-29T14:58:10.354Z,9.77
2023-04-29T15:00:37.067Z,8.68
2023-04-29T15:03:05.046Z,9.43
2023-04-29T15:05:31.707Z,7.03
2023-04-29T15:08:00.093Z,6.47
2023-04-29T15:10:27.193Z,7.60
2023-04-29T15:12:54.289Z,6.93
2023-04-29T15:15:21.744Z,8.65
2023-04-29T15:17:48.591Z,7.22
2023-04-29T15:20:15.554Z,7.65
2023-04-29T15:22:42.234Z,7.32
2023-04-29T15:25:12.049Z,7.18
2023-04-29T15:27:41.454Z,9.68
2023-04-29T15:30:08.529Z,8.05
2023-04-29T15:32:35.153Z,8.90
2023-04-29T15:35:03.435Z,9.95
2023-04-29T15:37:30.620Z,6.95
2023-04-29T15:40:01.821Z,7.78
2023-04-29T15:42:28.621Z,8.15
2023-04-29T15:44:55.963Z,8.65
2023-04-29T15:47:22.811Z,9.63
2023-04-29T15:49:51.761Z,7.70
2023-04-29T15:52:18.616Z,7.38
2023-04-29T15:54:45.201Z,8.48
2023-04-29T15:57:11.780Z,7.13
2023-04-29T15:59:38.322Z,10.02
2023-04-29T16:02:10.192Z,7.40
2023-04-29T16:04:37.695Z,6.82
2023-04-29T16:07:05.315Z,7.25
2023-04-29T16:09:35.649Z,5.78
2023-04-29T16:12:02.347Z,9.02
2023-04-29T16:14:30.429Z,7.07
2023-04-29T16:16:57.067Z,7.03
2023-04-29T16:19:23.733Z,8.18
2023-04-29T16:21:50.289Z,6.40
2023-04-29T16:24:16.894Z,7.22
2023-04-29T16:26:43.485Z,9.43
2023-04-29T16:29:12.206Z,6.40
2023-04-29T16:31:39.376Z,6.47
2023-04-29T16:34:06.034Z,7.28
2023-04-29T16:36:32.824Z,8.43
2023-04-29T16:38:59.490Z,7.07
2023-04-29T16:41:26.088Z,6.15
2023-04-29T16:43:53.855Z,7.15
2023-04-29T16:46:20.633Z,8.23
2023-04-29T16:48:48.293Z,6.28
2023-04-29T16:51:14.848Z,8.00
2023-04-29T16:53:41.408Z,5.90
2023-04-29T16:56:08.381Z,6.30
2023-04-29T16:58:34.970Z,6.25
2023-04-29T17:01:01.710Z,7.03
2023-04-29T17:03:29.314Z,5.90
2023-04-29T17:05:56.202Z,7.72
2023-04-29T17:08:23.987Z,6.38
2023-04-29T17:10:53.775Z,7.90
2023-04-29T17:13:20.650Z,5.93
2023-04-29T17:15:47.781Z,6.70
2023-04-29T17:18:14.386Z,6.15
2023-04-29T17:20:41.984Z,7.35
2023-04-29T17:23:08.951Z,8.18
2023-04-29T17:25:37.901Z,15.77
2023-04-29T17:28:06.029Z,8.32
2023-04-29T17:30:35.919Z,6.43
2023-04-29T17:33:05.598Z,6.85
2023-04-29T17:35:35.545Z,7.07
2023-04-29T17:38:02.230Z,6.53
2023-04-29T17:40:28.784Z,6.53
2023-04-29T17:42:55.428Z,7.50
2023-04-29T17:45:24.179Z,7.38
2023-04-29T17:47:51.106Z,10.13
2023-04-29T17:50:17.986Z,8.52
2023-04-29T17:52:44.676Z,10.40
2023-04-29T17:55:16.279Z,12.32
2023-04-29T17:57:45.209Z,10.70
2023-04-29T18:00:12.246Z,11.15
2023-04-29T18:02:39.425Z,12.50
2023-04-29T18:05:08.738Z,13.27
2023-04-29T18:07:35.564Z,14.00
2023-04-29T18:10:02.162Z,12.68
2023-04-29T18:12:28.819Z,12.35
2023-04-29T18:14:55.733Z,14.38
2023-04-29T18:17:22.325Z,13.30
2023-04-29T18:19:51.732Z,12.52
2023-04-29T18:22:18.377Z,10.95
2023-04-29T18:24:46.071Z,10.02
2023-04-29T18:27:12.699Z,10.50
2023-04-29T18:29:39.318Z,8.60
2023-04-29T18:32:08.015Z,9.90
2023-04-29T18:34:34.918Z,8.85
2023-04-29T18:37:03.779Z,9.02
2023-04-29T18:39:30.722Z,7.75
2023-04-29T18:41:57.943Z,7.43
2023-04-29T18:44:26.101Z,7.15
2023-04-29T18:46:52.874Z,7.07
2023-04-29T18:49:19.560Z,7.30
2023-04-29T18:51:46.782Z,6.70
2023-04-29T18:54:18.253Z,6.70
2023-04-29T18:56:49.620Z,6.73
2023-04-29T18:59:19.154Z,7.65
2023-04-29T19:01:47.053Z,6.40
2023-04-29T19:04:14.000Z,7.43
2023-04-29T19:06:41.512Z,8.05
2023-04-29T19:09:08.353Z,8.60
2023-04-29T19:11:34.955Z,8.43
2023-04-29T19:14:01.597Z,8.80
2023-04-29T19:16:28.273Z,8.15
2023-04-29T19:18:54.834Z,8.25
2023-04-29T19:21:21.738Z,7.65
2023-04-29T19:23:48.291Z,7.13
2023-04-29T19:26:14.919Z,7.35
2023-04-29T19:28:41.552Z,7.55
2023-04-29T19:31:08.160Z,7.85
2023-04-29T19:33:35.415Z,7.18
2023-04-29T19:36:04.944Z,6.82
2023-04-29T19:38:31.533Z,7.82
2023-04-29T19:40:58.188Z,7.50
2023-04-29T19:43:24.823Z,7.65
2023-04-29T19:45:51.398Z,8.02
2023-04-29T19:48:19.296Z,7.53
2023-04-29T19:50:46.105Z,7.63
2023-04-29T19:53:12.964Z,8.52
2023-04-29T19:55:39.951Z,7.10
2023-04-29T19:58:07.309Z,7.18
2023-04-29T20:00:34.304Z,7.30
2023-04-29T20:03:03.558Z,6.82
2023-04-29T20:05:32.671Z,6.85
2023-04-29T20:08:01.606Z,6.50
2023-04-29T20:10:29.929Z,6.30
2023-04-29T20:12:56.828Z,7.28
2023-04-29T20:15:31.319Z,7.60
2023-04-29T20:17:58.042Z,5.40
2023-04-29T20:20:26.054Z,6.43
2023-04-29T20:22:59.943Z,6.85
2023-04-29T20:25:28.360Z,9.70
2023-04-29T20:27:54.993Z,6.65
2023-04-29T20:30:21.588Z,7.97
2023-04-29T20:32:48.264Z,8.50
2023-04-29T20:35:15.738Z,7.30
2023-04-29T20:37:42.467Z,7.28
2023-04-29T20:40:09.686Z,7.72
2023-04-29T20:42:36.374Z,7.85
2023-04-29T20:45:03.294Z,7.10
2023-04-29T20:47:30.045Z,6.65
2023-04-29T20:50:00.698Z,5.97
2023-04-29T20:52:28.231Z,5.53
2023-04-29T20:54:54.864Z,5.60
2023-04-29T20:57:21.547Z,4.75
2023-04-29T20:59:48.305Z,8.80
2023-04-29T21:02:15.451Z,4.78
2023-04-29T21:04:42.040Z,6.90
2023-04-29T21:07:08.674Z,5.65
2023-04-29T21:09:35.726Z,6.38
2023-04-29T21:12:05.185Z,6.00
2023-04-29T21:14:32.743Z,5.43
2023-04-29T21:17:01.620Z,5.75
2023-04-29T21:19:28.190Z,7.03
2023-04-29T21:21:54.772Z,6.13
2023-04-29T21:24:21.367Z,7.10
2023-04-29T21:26:50.099Z,7.25
2023-04-29T21:29:16.664Z,6.85
2023-04-29T21:31:43.304Z,7.32
2023-04-29T21:34:09.953Z,7.88
2023-04-29T21:36:36.629Z,8.63
2023-04-29T21:39:06.276Z,7.47
2023-04-29T21:41:45.423Z,8.30
2023-04-29T21:44:15.393Z,7.60
2023-04-29T21:46:42.288Z,7.57
2023-04-29T21:49:12.278Z,7.53
2023-04-29T21:51:38.866Z,7.35
2023-04-29T21:54:08.253Z,6.88
2023-04-29T21:56:35.733Z,6.47
2023-04-29T21:59:02.457Z,6.32
2023-04-29T22:01:47.398Z,5.70
2023-04-29T22:04:16.549Z,4.68
2023-04-29T22:06:43.384Z,5.93
2023-04-29T22:09:10.355Z,5.95
2023-04-29T22:11:39.125Z,5.13
2023-04-29T22:14:05.755Z,4.95
2023-04-29T22:16:34.979Z,5.15
2023-04-29T22:19:03.929Z,5.15
2023-04-29T22:21:33.514Z,4.80
2023-04-29T22:24:02.554Z,5.45
2023-04-29T22:26:29.269Z,6.25
2023-04-29T22:28:56.746Z,4.85
2023-04-29T22:31:23.400Z,4.88
2023-04-29T22:33:50.786Z,4.45
2023-04-29T22:36:17.371Z,5.68
2023-04-29T22:38:43.958Z,4.35
2023-04-29T22:41:11.653Z,4.30
2023-04-29T22:43:38.409Z,4.72
2023-04-29T22:46:05.060Z,4.88
2023-04-29T22:48:31.755Z,4.10
2023-04-29T22:50:59.364Z,4.38
2023-04-29T22:53:26.293Z,5.47
2023-04-29T22:55:54.480Z,5.35
2023-04-29T22:58:24.404Z,4.20
2023-04-29T23:00:53.408Z,4.20
2023-04-29T23:03:20.414Z,6.00
2023-04-29T23:05:47.071Z,5.43
2023-04-29T23:08:13.890Z,5.20
2023-04-29T23:10:40.607Z,4.85
2023-04-29T23:13:07.257Z,7.72
2023-04-29T23:15:33.844Z,4.18
2023-04-29T23:18:00.514Z,5.18
2023-04-29T23:20:27.275Z,6.25
2023-04-29T23:22:53.835Z,5.53
2023-04-29T23:25:20.415Z,5.93
2023-04-29T23:27:48.262Z,4.43
2023-04-29T23:30:14.844Z,5.05
2023-04-29T23:32:43.971Z,4.43
2023-04-29T23:35:13.702Z,8.27
2023-04-29T23:37:40.256Z,5.55
2023-04-29T23:40:07.373Z,5.55
2023-04-29T23:42:38.372Z,6.35
2023-04-29T23:45:06.272Z,6.57
2023-04-29T23:47:32.915Z,6.80
2023-04-29T23:49:59.529Z,6.43
2023-04-29T23:52:26.255Z,6.47
2023-04-29T23:54:52.835Z,8.65
2023-04-29T23:57:19.429Z,9.38
2023-04-29T23:59:46.097Z,7.82
